sensor_id;sensor_type;location;lat;lon;timestamp;pressure;altitude;pressure_sealevel;temperature;humidity
26775;BME280;14362;51.902;7.626;2022-07-25T00:04:00;100560.38;;;21.89;84.48
26775;BME280;14362;51.902;7.626;2022-07-25T00:08:04;100543.75;;;21.81;85.66
26775;BME280;14362;51.902;7.626;2022-07-25T00:12:06;100545.75;;;21.73;84.89
26775;BME280;14362;51.902;7.626;2022-07-25T00:16:07;100537.25;;;21.67;85.49
26775;BME280;14362;51.902;7.626;2022-07-25T00:20:09;100536.84;;;21.65;86.58
26775;BME280;14362;51.902;7.626;2022-07-25T00:24:12;100527.47;;;21.54;87.05
26775;BME280;14362;51.902;7.626;2022-07-25T00:28:13;100510.44;;;21.50;87.68
26775;BME280;14362;51.902;7.626;2022-07-25T00:32:15;100516.13;;;21.47;87.39
26775;BME280;14362;51.902;7.626;2022-07-25T00:36:16;100505.56;;;21.47;86.62
26775;BME280;14362;51.902;7.626;2022-07-25T00:40:19;100502.75;;;21.40;86.35
26775;BME280;14362;51.902;7.626;2022-07-25T00:44:22;100496.25;;;21.40;86.95
26775;BME280;14362;51.902;7.626;2022-07-25T00:48:24;100495.41;;;21.36;86.40
26775;BME280;14362;51.902;7.626;2022-07-25T00:52:25;100493.81;;;21.31;85.98
26775;BME280;14362;51.902;7.626;2022-07-25T00:56:29;100496.22;;;21.29;86.88
26775;BME280;14362;51.902;7.626;2022-07-25T01:00:31;100489.34;;;21.27;87.38
26775;BME280;14362;51.902;7.626;2022-07-25T01:04:32;100480.84;;;21.27;87.61
26775;BME280;14362;51.902;7.626;2022-07-25T01:08:34;100483.25;;;21.21;88.19
26775;BME280;14362;51.902;7.626;2022-07-25T01:12:50;100489.72;;;21.18;87.99
26775;BME280;14362;51.902;7.626;2022-07-25T01:16:52;100484.03;;;21.11;88.17
26775;BME280;14362;51.902;7.626;2022-07-25T01:20:55;100488.91;;;21.14;88.47
26775;BME280;14362;51.902;7.626;2022-07-25T01:24:56;100488.47;;;21.05;89.57
26775;BME280;14362;51.902;7.626;2022-07-25T01:28:58;100483.19;;;21.00;89.22
26775;BME280;14362;51.902;7.626;2022-07-25T01:32:59;100479.94;;;20.98;90.42
26775;BME280;14362;51.902;7.626;2022-07-25T01:37:02;100487.22;;;20.96;90.81
26775;BME280;14362;51.902;7.626;2022-07-25T01:41:04;100486.38;;;20.88;91.30
26775;BME280;14362;51.902;7.626;2022-07-25T01:45:07;100473.41;;;20.80;92.21
26775;BME280;14362;51.902;7.626;2022-07-25T01:49:08;100470.50;;;20.77;92.58
26775;BME280;14362;51.902;7.626;2022-07-25T01:53:11;100467.69;;;20.77;93.43
26775;BME280;14362;51.902;7.626;2022-07-25T01:57:12;100459.56;;;20.65;93.76
26775;BME280;14362;51.902;7.626;2022-07-25T02:01:14;100449.84;;;20.66;93.89
26775;BME280;14362;51.902;7.626;2022-07-25T02:05:15;100449.41;;;20.61;94.45
26775;BME280;14362;51.902;7.626;2022-07-25T02:09:18;100437.69;;;20.55;93.94
26775;BME280;14362;51.902;7.626;2022-07-25T02:13:20;100432.81;;;20.52;93.09
26775;BME280;14362;51.902;7.626;2022-07-25T02:17:21;100432.75;;;20.49;94.30
26775;BME280;14362;51.902;7.626;2022-07-25T02:21:23;100431.56;;;20.46;94.41
26775;BME280;14362;51.902;7.626;2022-07-25T02:25:26;100418.59;;;20.42;95.23
26775;BME280;14362;51.902;7.626;2022-07-25T02:29:28;100419.81;;;20.41;94.62
26775;BME280;14362;51.902;7.626;2022-07-25T02:33:30;100421.41;;;20.38;94.82
26775;BME280;14362;51.902;7.626;2022-07-25T02:37:31;100422.63;;;20.37;94.82
26775;BME280;14362;51.902;7.626;2022-07-25T02:41:34;100410.47;;;20.33;94.86
26775;BME280;14362;51.902;7.626;2022-07-25T02:45:36;100413.28;;;20.33;94.46
26775;BME280;14362;51.902;7.626;2022-07-25T02:49:37;100404.34;;;20.24;93.94
26775;BME280;14362;51.902;7.626;2022-07-25T02:53:39;100404.34;;;20.21;93.90
26775;BME280;14362;51.902;7.626;2022-07-25T02:57:41;100403.09;;;20.15;94.32
26775;BME280;14362;51.902;7.626;2022-07-25T03:01:43;100405.13;;;20.18;94.21
26775;BME280;14362;51.902;7.626;2022-07-25T03:05:44;100408.72;;;20.11;94.84
26775;BME280;14362;51.902;7.626;2022-07-25T03:09:46;100396.59;;;20.11;95.59
26775;BME280;14362;51.902;7.626;2022-07-25T03:13:48;100392.53;;;20.12;96.11
26775;BME280;14362;51.902;7.626;2022-07-25T03:17:50;100396.56;;;20.07;96.67
26775;BME280;14362;51.902;7.626;2022-07-25T03:21:51;100390.06;;;20.03;97.32
26775;BME280;14362;51.902;7.626;2022-07-25T03:25:53;100383.94;;;19.94;97.18
26775;BME280;14362;51.902;7.626;2022-07-25T03:29:56;100377.44;;;19.90;97.24
26775;BME280;14362;51.902;7.626;2022-07-25T03:33:58;100376.59;;;19.86;97.92
26775;BME280;14362;51.902;7.626;2022-07-25T03:38:00;100380.28;;;19.87;97.38
26775;BME280;14362;51.902;7.626;2022-07-25T03:42:02;100376.19;;;19.84;97.24
26775;BME280;14362;51.902;7.626;2022-07-25T03:46:05;100368.13;;;19.83;96.93
26775;BME280;14362;51.902;7.626;2022-07-25T03:50:07;100362.03;;;19.81;97.50
26775;BME280;14362;51.902;7.626;2022-07-25T03:54:09;100357.22;;;19.81;98.09
26775;BME280;14362;51.902;7.626;2022-07-25T03:58:12;100357.22;;;19.85;96.04
26775;BME280;14362;51.902;7.626;2022-07-25T04:02:15;100341.50;;;19.91;96.95
26775;BME280;14362;51.902;7.626;2022-07-25T04:06:17;100342.66;;;19.86;97.31
26775;BME280;14362;51.902;7.626;2022-07-25T04:10:19;100348.38;;;19.90;97.05
26775;BME280;14362;51.902;7.626;2022-07-25T04:14:20;100337.84;;;19.87;95.91
26775;BME280;14362;51.902;7.626;2022-07-25T04:18:23;100333.88;;;19.98;95.96
26775;BME280;14362;51.902;7.626;2022-07-25T04:22:25;100325.00;;;20.00;95.60
26775;BME280;14362;51.902;7.626;2022-07-25T04:26:26;100324.63;;;20.08;95.37
26775;BME280;14362;51.902;7.626;2022-07-25T04:30:29;100327.09;;;20.17;95.05
26775;BME280;14362;51.902;7.626;2022-07-25T04:34:31;100321.06;;;20.25;94.20
26775;BME280;14362;51.902;7.626;2022-07-25T04:38:33;100317.84;;;20.30;92.93
26775;BME280;14362;51.902;7.626;2022-07-25T04:42:35;100313.84;;;20.38;92.26
26775;BME280;14362;51.902;7.626;2022-07-25T04:46:36;100307.38;;;20.48;91.86
26775;BME280;14362;51.902;7.626;2022-07-25T04:50:39;100308.63;;;20.61;91.26
26775;BME280;14362;51.902;7.626;2022-07-25T04:54:41;100295.28;;;20.68;90.33
26775;BME280;14362;51.902;7.626;2022-07-25T04:58:42;100293.31;;;20.83;88.95
26775;BME280;14362;51.902;7.626;2022-07-25T05:02:44;100300.19;;;20.96;87.30
26775;BME280;14362;51.902;7.626;2022-07-25T05:06:46;100299.38;;;21.09;86.18
26775;BME280;14362;51.902;7.626;2022-07-25T05:10:48;100294.53;;;21.17;85.79
26775;BME280;14362;51.902;7.626;2022-07-25T05:14:49;100282.00;;;21.21;86.01
26775;BME280;14362;51.902;7.626;2022-07-25T05:18:51;100290.50;;;21.21;87.11
26775;BME280;14362;51.902;7.626;2022-07-25T05:22:54;100297.38;;;21.24;87.23
26775;BME280;14362;51.902;7.626;2022-07-25T05:26:55;100284.00;;;21.24;87.13
26775;BME280;14362;51.902;7.626;2022-07-25T05:30:57;100284.00;;;21.28;86.61
26775;BME280;14362;51.902;7.626;2022-07-25T05:34:58;100275.50;;;21.31;86.04
26775;BME280;14362;51.902;7.626;2022-07-25T05:39:02;100266.16;;;21.45;86.17
26775;BME280;14362;51.902;7.626;2022-07-25T05:43:03;100270.13;;;21.78;83.59
26775;BME280;14362;51.902;7.626;2022-07-25T05:47:08;100258.53;;;22.41;78.95
26775;BME280;14362;51.902;7.626;2022-07-25T05:51:09;100248.75;;;22.96;76.42
26775;BME280;14362;51.902;7.626;2022-07-25T05:55:13;100244.78;;;23.38;74.33
26775;BME280;14362;51.902;7.626;2022-07-25T05:59:15;100242.31;;;23.77;71.21
26775;BME280;14362;51.902;7.626;2022-07-25T06:03:16;100249.22;;;23.79;70.33
26775;BME280;14362;51.902;7.626;2022-07-25T06:07:18;100252.34;;;23.88;70.36
26775;BME280;14362;51.902;7.626;2022-07-25T06:11:21;100255.69;;;24.43;68.01
26775;BME280;14362;51.902;7.626;2022-07-25T06:15:22;100261.28;;;24.53;64.57
26775;BME280;14362;51.902;7.626;2022-07-25T06:19:24;100257.66;;;24.49;66.22
26775;BME280;14362;51.902;7.626;2022-07-25T06:23:25;100248.16;;;24.29;66.84
26775;BME280;14362;51.902;7.626;2022-07-25T06:27:28;100239.84;;;24.12;67.74
26775;BME280;14362;51.902;7.626;2022-07-25T06:31:30;100243.25;;;24.00;68.80
26775;BME280;14362;51.902;7.626;2022-07-25T06:35:31;100241.38;;;23.86;69.81
26775;BME280;14362;51.902;7.626;2022-07-25T06:39:33;100234.47;;;23.87;70.67
26775;BME280;14362;51.902;7.626;2022-07-25T06:43:35;100232.56;;;24.07;71.40
26775;BME280;14362;51.902;7.626;2022-07-25T06:47:38;100232.13;;;24.12;71.55
26775;BME280;14362;51.902;7.626;2022-07-25T06:51:40;100222.84;;;24.35;71.44
26775;BME280;14362;51.902;7.626;2022-07-25T06:55:42;100216.97;;;24.45;70.50
26775;BME280;14362;51.902;7.626;2022-07-25T06:59:44;100220.63;;;24.49;70.16
26775;BME280;14362;51.902;7.626;2022-07-25T07:03:46;100216.03;;;24.82;69.01
26775;BME280;14362;51.902;7.626;2022-07-25T07:07:47;100213.63;;;25.03;67.26
26775;BME280;14362;51.902;7.626;2022-07-25T07:11:49;100211.16;;;25.28;65.89
26775;BME280;14362;51.902;7.626;2022-07-25T07:15:51;100213.91;;;25.54;65.30
26775;BME280;14362;51.902;7.626;2022-07-25T07:19:53;100206.59;;;25.73;63.19
26775;BME280;14362;51.902;7.626;2022-07-25T07:23:54;100205.03;;;25.91;61.18
26775;BME280;14362;51.902;7.626;2022-07-25T07:27:56;100217.91;;;25.99;61.05
26775;BME280;14362;51.902;7.626;2022-07-25T07:31:59;100209.31;;;26.18;61.22
26775;BME280;14362;51.902;7.626;2022-07-25T07:36:01;100205.50;;;26.25;60.32
26775;BME280;14362;51.902;7.626;2022-07-25T07:40:03;100199.63;;;26.32;59.40
26775;BME280;14362;51.902;7.626;2022-07-25T07:44:04;100213.09;;;26.31;58.78
26775;BME280;14362;51.902;7.626;2022-07-25T07:48:07;100208.09;;;26.35;58.76
26775;BME280;14362;51.902;7.626;2022-07-25T07:52:09;100192.56;;;26.36;58.27
26775;BME280;14362;51.902;7.626;2022-07-25T07:56:10;100185.50;;;26.41;58.56
26775;BME280;14362;51.902;7.626;2022-07-25T08:00:13;100184.22;;;26.45;57.56
26775;BME280;14362;51.902;7.626;2022-07-25T08:04:16;100183.16;;;26.55;57.30
26775;BME280;14362;51.902;7.626;2022-07-25T08:08:18;100183.44;;;26.61;56.22
26775;BME280;14362;51.902;7.626;2022-07-25T08:12:19;100176.09;;;26.76;55.46
26775;BME280;14362;51.902;7.626;2022-07-25T08:16:21;100180.47;;;26.80;53.93
26775;BME280;14362;51.902;7.626;2022-07-25T08:20:24;100178.59;;;26.90;54.02
26775;BME280;14362;51.902;7.626;2022-07-25T08:24:25;100179.31;;;26.94;53.92
26775;BME280;14362;51.902;7.626;2022-07-25T08:28:26;100168.06;;;27.02;53.95
26775;BME280;14362;51.902;7.626;2022-07-25T08:32:28;100183.63;;;27.02;52.78
26775;BME280;14362;51.902;7.626;2022-07-25T08:36:31;100175.66;;;26.93;52.35
26775;BME280;14362;51.902;7.626;2022-07-25T08:40:33;100170.31;;;26.95;53.07
26775;BME280;14362;51.902;7.626;2022-07-25T08:44:37;100172.69;;;26.97;53.60
26775;BME280;14362;51.902;7.626;2022-07-25T08:48:41;100179.78;;;27.08;54.76
26775;BME280;14362;51.902;7.626;2022-07-25T08:52:46;100183.63;;;27.02;53.42
26775;BME280;14362;51.902;7.626;2022-07-25T08:56:48;100186.00;;;27.03;53.32
26775;BME280;14362;51.902;7.626;2022-07-25T09:00:49;100187.72;;;27.01;53.00
26775;BME280;14362;51.902;7.626;2022-07-25T09:04:51;100183.16;;;27.03;52.77
26775;BME280;14362;51.902;7.626;2022-07-25T09:08:55;100175.69;;;27.09;52.40
26775;BME280;14362;51.902;7.626;2022-07-25T09:12:59;100176.53;;;27.22;52.64
26775;BME280;14362;51.902;7.626;2022-07-25T09:17:05;100172.19;;;27.17;51.62
26775;BME280;14362;51.902;7.626;2022-07-25T09:21:12;100178.88;;;27.27;52.25
26775;BME280;14362;51.902;7.626;2022-07-25T09:25:23;100172.38;;;27.39;50.31
26775;BME280;14362;51.902;7.626;2022-07-25T09:29:26;100167.44;;;27.55;50.58
26775;BME280;14362;51.902;7.626;2022-07-25T09:33:30;100158.38;;;27.73;49.57
26775;BME280;14362;51.902;7.626;2022-07-25T09:37:32;100158.72;;;27.87;50.00
26775;BME280;14362;51.902;7.626;2022-07-25T09:41:35;100164.81;;;27.89;49.83
26775;BME280;14362;51.902;7.626;2022-07-25T09:45:47;100162.13;;;28.11;49.93
26775;BME280;14362;51.902;7.626;2022-07-25T09:49:49;100164.75;;;28.17;50.14
26775;BME280;14362;51.902;7.626;2022-07-25T09:53:51;100165.72;;;28.39;50.51
26775;BME280;14362;51.902;7.626;2022-07-25T09:57:54;100165.16;;;28.44;48.28
26775;BME280;14362;51.902;7.626;2022-07-25T10:02:02;100158.72;;;28.40;48.83
26775;BME280;14362;51.902;7.626;2022-07-25T10:06:13;100165.50;;;28.46;49.12
26775;BME280;14362;51.902;7.626;2022-07-25T10:10:24;100165.16;;;28.57;47.97
26775;BME280;14362;51.902;7.626;2022-07-25T10:14:28;100169.97;;;28.60;47.36
26775;BME280;14362;51.902;7.626;2022-07-25T10:18:29;100162.75;;;28.55;47.68
26775;BME280;14362;51.902;7.626;2022-07-25T10:22:36;100155.94;;;28.74;47.09
26775;BME280;14362;51.902;7.626;2022-07-25T10:26:38;100159.38;;;28.82;47.31
26775;BME280;14362;51.902;7.626;2022-07-25T10:30:41;100162.47;;;29.00;46.54
26775;BME280;14362;51.902;7.626;2022-07-25T10:34:51;100155.59;;;28.97;46.57
26775;BME280;14362;51.902;7.626;2022-07-25T10:38:56;100166.16;;;29.00;47.16
26775;BME280;14362;51.902;7.626;2022-07-25T10:43:05;100167.44;;;28.99;47.46
26775;BME280;14362;51.902;7.626;2022-07-25T10:47:11;100172.47;;;28.95;47.97
26775;BME280;14362;51.902;7.626;2022-07-25T10:51:12;100168.00;;;28.94;47.05
26775;BME280;14362;51.902;7.626;2022-07-25T10:55:21;100182.13;;;28.89;47.56
26775;BME280;14362;51.902;7.626;2022-07-25T10:59:31;100174.91;;;28.84;48.73
26775;BME280;14362;51.902;7.626;2022-07-25T11:03:35;100182.59;;;28.62;48.42
26775;BME280;14362;51.902;7.626;2022-07-25T11:07:36;100171.81;;;28.66;49.26
26775;BME280;14362;51.902;7.626;2022-07-25T11:11:39;100174.69;;;28.66;49.22
26775;BME280;14362;51.902;7.626;2022-07-25T11:15:42;100180.41;;;28.91;50.41
26775;BME280;14362;51.902;7.626;2022-07-25T11:19:54;100161.34;;;28.97;48.51
26775;BME280;14362;51.902;7.626;2022-07-25T11:23:56;100175.16;;;29.23;49.73
26775;BME280;14362;51.902;7.626;2022-07-25T11:27:58;100161.56;;;29.36;49.19
26775;BME280;14362;51.902;7.626;2022-07-25T11:32:03;100165.25;;;29.37;49.32
26775;BME280;14362;51.902;7.626;2022-07-25T11:36:08;100165.59;;;29.51;50.16
26775;BME280;14362;51.902;7.626;2022-07-25T11:40:10;100167.63;;;29.51;48.69
26775;BME280;14362;51.902;7.626;2022-07-25T11:44:15;100179.13;;;29.51;48.75
26775;BME280;14362;51.902;7.626;2022-07-25T11:48:16;100173.91;;;29.58;48.55
26775;BME280;14362;51.902;7.626;2022-07-25T11:52:24;100179.47;;;29.74;46.77
26775;BME280;14362;51.902;7.626;2022-07-25T11:56:26;100171.59;;;29.66;46.61
26775;BME280;14362;51.902;7.626;2022-07-25T12:00:28;100174.88;;;29.77;47.20
26775;BME280;14362;51.902;7.626;2022-07-25T12:04:30;100179.03;;;29.76;47.64
26775;BME280;14362;51.902;7.626;2022-07-25T12:08:36;100188.16;;;29.83;47.13
26775;BME280;14362;51.902;7.626;2022-07-25T12:12:47;100193.03;;;29.95;46.55
26775;BME280;14362;51.902;7.626;2022-07-25T12:16:48;100209.75;;;29.88;45.96
26775;BME280;14362;51.902;7.626;2022-07-25T12:20:50;100198.78;;;29.95;46.39
26775;BME280;14362;51.902;7.626;2022-07-25T12:24:53;100196.84;;;29.71;46.35
26775;BME280;14362;51.902;7.626;2022-07-25T12:28:55;100199.88;;;29.67;45.77
26775;BME280;14362;51.902;7.626;2022-07-25T12:32:57;100209.88;;;29.63;45.95
26775;BME280;14362;51.902;7.626;2022-07-25T12:36:59;100208.94;;;29.66;45.29
26775;BME280;14362;51.902;7.626;2022-07-25T12:41:01;100199.66;;;29.62;45.51
26775;BME280;14362;51.902;7.626;2022-07-25T12:45:03;100214.44;;;29.73;45.12
26775;BME280;14362;51.902;7.626;2022-07-25T12:49:06;100212.75;;;29.63;44.26
26775;BME280;14362;51.902;7.626;2022-07-25T12:53:08;100195.59;;;29.72;44.31
26775;BME280;14362;51.902;7.626;2022-07-25T12:57:11;100220.31;;;29.69;44.28
26775;BME280;14362;51.902;7.626;2022-07-25T13:01:13;100210.84;;;29.47;44.11
26775;BME280;14362;51.902;7.626;2022-07-25T13:05:15;100225.81;;;29.42;43.63
26775;BME280;14362;51.902;7.626;2022-07-25T13:09:16;100231.16;;;29.53;43.67
26775;BME280;14362;51.902;7.626;2022-07-25T13:13:19;100221.47;;;29.13;44.40
26775;BME280;14362;51.902;7.626;2022-07-25T13:17:21;100227.34;;;28.85;44.93
26775;BME280;14362;51.902;7.626;2022-07-25T13:21:22;100222.09;;;28.96;45.47
26775;BME280;14362;51.902;7.626;2022-07-25T13:25:25;100222.00;;;29.33;45.78
26775;BME280;14362;51.902;7.626;2022-07-25T13:29:27;100244.75;;;29.27;45.07
26775;BME280;14362;51.902;7.626;2022-07-25T13:33:29;100232.88;;;28.92;46.05
26775;BME280;14362;51.902;7.626;2022-07-25T13:37:30;100235.97;;;28.85;46.79
26775;BME280;14362;51.902;7.626;2022-07-25T13:41:32;100242.38;;;28.76;47.19
26775;BME280;14362;51.902;7.626;2022-07-25T13:45:35;100244.44;;;28.76;47.72
26775;BME280;14362;51.902;7.626;2022-07-25T13:49:37;100252.13;;;28.91;47.51
26775;BME280;14362;51.902;7.626;2022-07-25T13:53:38;100254.41;;;28.59;48.75
26775;BME280;14362;51.902;7.626;2022-07-25T13:57:40;100248.44;;;28.78;48.88
26775;BME280;14362;51.902;7.626;2022-07-25T14:01:42;100253.28;;;28.69;49.46
26775;BME280;14362;51.902;7.626;2022-07-25T14:05:45;100253.41;;;28.90;49.27
26775;BME280;14362;51.902;7.626;2022-07-25T14:09:46;100250.53;;;29.03;49.08
26775;BME280;14362;51.902;7.626;2022-07-25T14:13:48;100238.34;;;28.74;49.38
26775;BME280;14362;51.902;7.626;2022-07-25T14:17:51;100247.28;;;28.51;50.78
26775;BME280;14362;51.902;7.626;2022-07-25T14:21:53;100247.63;;;28.40;52.37
26775;BME280;14362;51.902;7.626;2022-07-25T14:25:54;100233.50;;;28.33;52.79
26775;BME280;14362;51.902;7.626;2022-07-25T14:29:57;100235.34;;;28.27;53.14
26775;BME280;14362;51.902;7.626;2022-07-25T14:34:00;100229.00;;;28.32;52.74
26775;BME280;14362;51.902;7.626;2022-07-25T14:38:02;100238.78;;;28.35;53.40
26775;BME280;14362;51.902;7.626;2022-07-25T14:42:05;100229.47;;;28.31;52.78
26775;BME280;14362;51.902;7.626;2022-07-25T14:46:08;100233.06;;;28.07;52.99
26775;BME280;14362;51.902;7.626;2022-07-25T14:50:11;100238.75;;;27.94;52.30
26775;BME280;14362;51.902;7.626;2022-07-25T14:54:13;100242.09;;;28.05;52.29
26775;BME280;14362;51.902;7.626;2022-07-25T14:58:14;100269.91;;;27.92;51.16
26775;BME280;14362;51.902;7.626;2022-07-25T15:02:15;100287.25;;;27.73;52.34
26775;BME280;14362;51.902;7.626;2022-07-25T15:06:18;100283.69;;;27.69;52.85
26775;BME280;14362;51.902;7.626;2022-07-25T15:10:20;100282.50;;;28.11;53.60
26775;BME280;14362;51.902;7.626;2022-07-25T15:14:21;100302.25;;;28.21;53.13
26775;BME280;14362;51.902;7.626;2022-07-25T15:18:23;100293.66;;;28.21;52.99
26775;BME280;14362;51.902;7.626;2022-07-25T15:22:25;100299.56;;;28.14;53.35
26775;BME280;14362;51.902;7.626;2022-07-25T15:26:27;100308.53;;;27.88;54.91
26775;BME280;14362;51.902;7.626;2022-07-25T15:30:28;100307.22;;;27.44;55.49
26775;BME280;14362;51.902;7.626;2022-07-25T15:34:30;100312.59;;;27.26;56.13
26775;BME280;14362;51.902;7.626;2022-07-25T15:38:33;100326.41;;;26.96;56.72
26775;BME280;14362;51.902;7.626;2022-07-25T15:42:36;100322.34;;;26.94;55.55
26775;BME280;14362;51.902;7.626;2022-07-25T15:46:38;100329.97;;;26.65;56.48
26775;BME280;14362;51.902;7.626;2022-07-25T15:50:41;100331.59;;;26.46;57.16
26775;BME280;14362;51.902;7.626;2022-07-25T15:54:45;100336.66;;;26.19;58.06
26775;BME280;14362;51.902;7.626;2022-07-25T15:58:46;100353.91;;;26.12;58.62
26775;BME280;14362;51.902;7.626;2022-07-25T16:02:48;100371.75;;;25.97;59.35
26775;BME280;14362;51.902;7.626;2022-07-25T16:06:50;100362.59;;;25.86;59.75
26775;BME280;14362;51.902;7.626;2022-07-25T16:10:52;100365.13;;;25.58;60.73
26775;BME280;14362;51.902;7.626;2022-07-25T16:14:54;100356.63;;;25.54;61.56
26775;BME280;14362;51.902;7.626;2022-07-25T16:18:56;100353.59;;;25.88;61.92
26775;BME280;14362;51.902;7.626;2022-07-25T16:22:58;100346.88;;;26.17;59.98
26775;BME280;14362;51.902;7.626;2022-07-25T16:27:01;100352.19;;;26.18;58.90
26775;BME280;14362;51.902;7.626;2022-07-25T16:31:04;100349.31;;;26.38;59.75
26775;BME280;14362;51.902;7.626;2022-07-25T16:35:06;100351.59;;;26.27;56.57
26775;BME280;14362;51.902;7.626;2022-07-25T16:39:07;100349.75;;;25.98;58.14
26775;BME280;14362;51.902;7.626;2022-07-25T16:43:10;100338.81;;;25.93;56.44
26775;BME280;14362;51.902;7.626;2022-07-25T16:47:12;100356.06;;;25.86;54.69
26775;BME280;14362;51.902;7.626;2022-07-25T16:51:14;100355.16;;;25.92;54.10
26775;BME280;14362;51.902;7.626;2022-07-25T16:55:15;100359.97;;;25.95;54.74
26775;BME280;14362;51.902;7.626;2022-07-25T16:59:18;100348.81;;;25.81;54.15
26775;BME280;14362;51.902;7.626;2022-07-25T17:03:19;100352.50;;;25.78;53.83
26775;BME280;14362;51.902;7.626;2022-07-25T17:07:21;100358.28;;;25.75;54.28
26775;BME280;14362;51.902;7.626;2022-07-25T17:11:22;100357.25;;;25.65;54.42
26775;BME280;14362;51.902;7.626;2022-07-25T17:15:25;100362.34;;;25.54;54.22
26775;BME280;14362;51.902;7.626;2022-07-25T17:19:26;100361.66;;;25.47;54.79
26775;BME280;14362;51.902;7.626;2022-07-25T17:23:28;100361.28;;;25.45;54.48
26775;BME280;14362;51.902;7.626;2022-07-25T17:27:29;100367.66;;;25.29;53.72
26775;BME280;14362;51.902;7.626;2022-07-25T17:31:32;100370.22;;;25.20;53.88
26775;BME280;14362;51.902;7.626;2022-07-25T17:35:34;100365.34;;;25.21;55.13
26775;BME280;14362;51.902;7.626;2022-07-25T17:39:36;100371.19;;;25.10;54.74
26775;BME280;14362;51.902;7.626;2022-07-25T17:43:37;100377.59;;;25.18;54.48
26775;BME280;14362;51.902;7.626;2022-07-25T17:47:41;100381.75;;;25.40;54.53
26775;BME280;14362;51.902;7.626;2022-07-25T17:51:43;100381.88;;;25.56;53.07
26775;BME280;14362;51.902;7.626;2022-07-25T17:55:44;100381.09;;;25.55;52.86
26775;BME280;14362;51.902;7.626;2022-07-25T17:59:46;100378.56;;;25.57;53.17
26775;BME280;14362;51.902;7.626;2022-07-25T18:03:49;100393.25;;;25.33;51.98
26775;BME280;14362;51.902;7.626;2022-07-25T18:07:51;100380.94;;;25.13;52.41
26775;BME280;14362;51.902;7.626;2022-07-25T18:11:53;100371.34;;;25.00;52.54
26775;BME280;14362;51.902;7.626;2022-07-25T18:15:54;100378.75;;;24.94;52.82
26775;BME280;14362;51.902;7.626;2022-07-25T18:19:57;100382.19;;;24.82;54.31
26775;BME280;14362;51.902;7.626;2022-07-25T18:24:00;100374.31;;;24.63;54.59
26775;BME280;14362;51.902;7.626;2022-07-25T18:28:02;100376.44;;;24.56;56.83
26775;BME280;14362;51.902;7.626;2022-07-25T18:32:05;100382.25;;;24.45;58.17
26775;BME280;14362;51.902;7.626;2022-07-25T18:36:08;100385.94;;;24.42;60.01
26775;BME280;14362;51.902;7.626;2022-07-25T18:40:10;100388.88;;;24.35;60.25
26775;BME280;14362;51.902;7.626;2022-07-25T18:44:12;100399.53;;;24.31;60.60
26775;BME280;14362;51.902;7.626;2022-07-25T18:48:14;100391.03;;;24.24;59.35
26775;BME280;14362;51.902;7.626;2022-07-25T18:52:17;100400.03;;;24.19;57.85
26775;BME280;14362;51.902;7.626;2022-07-25T18:56:18;100406.13;;;24.21;57.05
26775;BME280;14362;51.902;7.626;2022-07-25T19:00:20;100418.34;;;24.22;56.32
26775;BME280;14362;51.902;7.626;2022-07-25T19:04:21;100420.47;;;24.11;56.05
26775;BME280;14362;51.902;7.626;2022-07-25T19:08:24;100432.81;;;24.01;55.27
26775;BME280;14362;51.902;7.626;2022-07-25T19:12:26;100427.63;;;23.89;55.25
26775;BME280;14362;51.902;7.626;2022-07-25T19:16:27;100438.69;;;23.80;55.15
26775;BME280;14362;51.902;7.626;2022-07-25T19:20:29;100447.34;;;23.66;55.94
26775;BME280;14362;51.902;7.626;2022-07-25T19:24:31;100453.41;;;23.65;57.00
26775;BME280;14362;51.902;7.626;2022-07-25T19:28:33;100456.78;;;23.53;57.59
26775;BME280;14362;51.902;7.626;2022-07-25T19:32:35;100473.97;;;23.39;57.13
26775;BME280;14362;51.902;7.626;2022-07-25T19:36:37;100491.03;;;23.35;58.16
26775;BME280;14362;51.902;7.626;2022-07-25T19:40:40;100487.06;;;23.22;58.63
26775;BME280;14362;51.902;7.626;2022-07-25T19:44:42;100497.22;;;23.16;58.78
26775;BME280;14362;51.902;7.626;2022-07-25T19:48:43;100496.47;;;23.09;58.99
26775;BME280;14362;51.902;7.626;2022-07-25T19:52:45;100498.13;;;22.96;60.07
26775;BME280;14362;51.902;7.626;2022-07-25T19:56:47;100508.31;;;22.86;59.88
26775;BME280;14362;51.902;7.626;2022-07-25T20:00:49;100510.78;;;22.77;59.73
26775;BME280;14362;51.902;7.626;2022-07-25T20:04:50;100513.25;;;22.72;60.00
26775;BME280;14362;51.902;7.626;2022-07-25T20:08:52;100520.97;;;22.68;60.10
26775;BME280;14362;51.902;7.626;2022-07-25T20:12:55;100519.00;;;22.55;61.06
26775;BME280;14362;51.902;7.626;2022-07-25T20:16:56;100519.38;;;22.53;60.66
26775;BME280;14362;51.902;7.626;2022-07-25T20:20:58;100524.25;;;22.49;61.65
26775;BME280;14362;51.902;7.626;2022-07-25T20:25:00;100525.50;;;22.38;62.10
26775;BME280;14362;51.902;7.626;2022-07-25T20:29:03;100523.88;;;22.33;63.03
26775;BME280;14362;51.902;7.626;2022-07-25T20:33:05;100523.47;;;22.21;62.97
26775;BME280;14362;51.902;7.626;2022-07-25T20:37:07;100538.47;;;22.18;63.70
26775;BME280;14362;51.902;7.626;2022-07-25T20:41:09;100527.53;;;22.16;65.14
26775;BME280;14362;51.902;7.626;2022-07-25T20:45:12;100529.16;;;22.14;64.96
26775;BME280;14362;51.902;7.626;2022-07-25T20:49:14;100540.50;;;22.10;64.91
26775;BME280;14362;51.902;7.626;2022-07-25T20:53:15;100539.31;;;22.04;65.43
26775;BME280;14362;51.902;7.626;2022-07-25T20:57:17;100538.91;;;22.02;65.41
26775;BME280;14362;51.902;7.626;2022-07-25T21:01:19;100538.88;;;21.95;66.70
26775;BME280;14362;51.902;7.626;2022-07-25T21:05:21;100544.97;;;21.97;66.57
26775;BME280;14362;51.902;7.626;2022-07-25T21:09:23;100545.41;;;21.96;68.55